sensor_id;sensor_type;location;lat;lon;timestamp;P1;durP1;ratioP1;P2;durP2;ratioP2
71368;SDS011;59175;53.214;5.728;2022-11-15T00:00:21;14.83;;;4.93;;
71368;SDS011;59175;53.214;5.728;2022-11-15T00:02:46;9.90;;;3.40;;
71368;SDS011;59175;53.214;5.728;2022-11-15T00:05:11;11.87;;;4.10;;
71368;SDS011;59175;53.214;5.728;2022-11-15T00:07:36;8.67;;;4.03;;
71368;SDS011;59175;53.214;5.728;2022-11-15T00:10:02;9.63;;;3.67;;
71368;SDS011;59175;53.214;5.728;2022-11-15T00:12:28;12.13;;;4.50;;
71368;SDS011;59175;53.214;5.728;2022-11-15T00:14:53;17.50;;;4.80;;
71368;SDS011;59175;53.214;5.728;2022-11-15T00:17:18;9.43;;;3.93;;
71368;SDS011;59175;53.214;5.728;2022-11-15T00:19:44;9.88;;;3.80;;
71368;SDS011;59175;53.214;5.728;2022-11-15T00:22:09;12.82;;;4.18;;
71368;SDS011;59175;53.214;5.728;2022-11-15T00:24:35;10.97;;;3.77;;
71368;SDS011;59175;53.214;5.728;2022-11-15T00:27:00;9.47;;;3.53;;
71368;SDS011;59175;53.214;5.728;2022-11-15T00:29:25;9.20;;;4.17;;
71368;SDS011;59175;53.214;5.728;2022-11-15T00:31:50;11.73;;;4.80;;
71368;SDS011;59175;53.214;5.728;2022-11-15T00:34:15;13.67;;;4.93;;
71368;SDS011;59175;53.214;5.728;2022-11-15T00:36:40;12.47;;;4.13;;
71368;SDS011;59175;53.214;5.728;2022-11-15T00:39:06;15.40;;;4.00;;
71368;SDS011;59175;53.214;5.728;2022-11-15T00:41:31;8.67;;;4.03;;
71368;SDS011;59175;53.214;5.728;2022-11-15T00:43:56;9.93;;;4.40;;
71368;SDS011;59175;53.214;5.728;2022-11-15T00:46:21;12.17;;;5.37;;
71368;SDS011;59175;53.214;5.728;2022-11-15T00:48:47;12.30;;;5.13;;
71368;SDS011;59175;53.214;5.728;2022-11-15T00:51:12;11.97;;;4.83;;
71368;SDS011;59175;53.214;5.728;2022-11-15T00:53:37;12.50;;;5.80;;
71368;SDS011;59175;53.214;5.728;2022-11-15T00:56:02;10.73;;;4.23;;
71368;SDS011;59175;53.214;5.728;2022-11-15T00:58:28;14.07;;;5.23;;
71368;SDS011;59175;53.214;5.728;2022-11-15T01:00:53;11.57;;;4.63;;
71368;SDS011;59175;53.214;5.728;2022-11-15T01:03:18;9.60;;;3.83;;
71368;SDS011;59175;53.214;5.728;2022-11-15T01:05:43;13.30;;;4.70;;
71368;SDS011;59175;53.214;5.728;2022-11-15T01:08:12;13.03;;;5.30;;
71368;SDS011;59175;53.214;5.728;2022-11-15T01:10:38;10.60;;;3.88;;
71368;SDS011;59175;53.214;5.728;2022-11-15T01:13:03;7.43;;;3.50;;
71368;SDS011;59175;53.214;5.728;2022-11-15T01:15:28;12.30;;;4.83;;
71368;SDS011;59175;53.214;5.728;2022-11-15T01:17:53;16.30;;;5.70;;
71368;SDS011;59175;53.214;5.728;2022-11-15T01:20:19;12.43;;;4.32;;
71368;SDS011;59175;53.214;5.728;2022-11-15T01:22:45;13.77;;;4.97;;
71368;SDS011;59175;53.214;5.728;2022-11-15T01:25:10;12.73;;;5.80;;
71368;SDS011;59175;53.214;5.728;2022-11-15T01:27:35;10.93;;;4.47;;
71368;SDS011;59175;53.214;5.728;2022-11-15T01:30:00;15.03;;;4.93;;
71368;SDS011;59175;53.214;5.728;2022-11-15T01:32:25;18.07;;;6.77;;
71368;SDS011;59175;53.214;5.728;2022-11-15T01:34:50;14.70;;;4.83;;
71368;SDS011;59175;53.214;5.728;2022-11-15T01:37:16;12.40;;;4.60;;
71368;SDS011;59175;53.214;5.728;2022-11-15T01:39:41;9.03;;;4.87;;
71368;SDS011;59175;53.214;5.728;2022-11-15T01:42:09;14.83;;;5.83;;
71368;SDS011;59175;53.214;5.728;2022-11-15T01:44:40;12.38;;;5.05;;
71368;SDS011;59175;53.214;5.728;2022-11-15T01:47:16;16.10;;;6.00;;
71368;SDS011;59175;53.214;5.728;2022-11-15T01:49:48;15.05;;;5.82;;
71368;SDS011;59175;53.214;5.728;2022-11-15T01:52:15;14.80;;;6.28;;
71368;SDS011;59175;53.214;5.728;2022-11-15T01:54:42;15.60;;;5.97;;
71368;SDS011;59175;53.214;5.728;2022-11-15T01:57:09;10.63;;;4.18;;
71368;SDS011;59175;53.214;5.728;2022-11-15T01:59:36;14.00;;;5.55;;
71368;SDS011;59175;53.214;5.728;2022-11-15T02:02:01;11.52;;;5.63;;
71368;SDS011;59175;53.214;5.728;2022-11-15T02:04:37;17.17;;;5.97;;
71368;SDS011;59175;53.214;5.728;2022-11-15T02:07:04;16.10;;;6.53;;
71368;SDS011;59175;53.214;5.728;2022-11-15T02:09:30;14.00;;;4.30;;
71368;SDS011;59175;53.214;5.728;2022-11-15T02:11:55;14.67;;;5.93;;
71368;SDS011;59175;53.214;5.728;2022-11-15T02:14:21;12.03;;;4.93;;
71368;SDS011;59175;53.214;5.728;2022-11-15T02:16:51;15.90;;;5.43;;
71368;SDS011;59175;53.214;5.728;2022-11-15T02:22:07;12.75;;;5.43;;
71368;SDS011;59175;53.214;5.728;2022-11-15T02:30:00;10.55;;;4.57;;
71368;SDS011;59175;53.214;5.728;2022-11-15T02:42:50;11.23;;;4.03;;
71368;SDS011;59175;53.214;5.728;2022-11-15T02:45:37;11.07;;;3.95;;
71368;SDS011;59175;53.214;5.728;2022-11-15T02:48:03;13.27;;;5.22;;
71368;SDS011;59175;53.214;5.728;2022-11-15T02:50:29;13.77;;;5.28;;
71368;SDS011;59175;53.214;5.728;2022-11-15T02:52:56;16.13;;;6.07;;
71368;SDS011;59175;53.214;5.728;2022-11-15T03:06:22;17.95;;;5.82;;
71368;SDS011;59175;53.214;5.728;2022-11-15T03:08:57;16.97;;;6.27;;
71368;SDS011;59175;53.214;5.728;2022-11-15T03:11:27;19.23;;;5.22;;
71368;SDS011;59175;53.214;5.728;2022-11-15T03:19:31;11.35;;;4.65;;
71368;SDS011;59175;53.214;5.728;2022-11-15T03:21:57;24.03;;;6.43;;
71368;SDS011;59175;53.214;5.728;2022-11-15T03:24:24;24.63;;;6.80;;
71368;SDS011;59175;53.214;5.728;2022-11-15T03:26:50;18.42;;;5.25;;
71368;SDS011;59175;53.214;5.728;2022-11-15T03:29:17;19.35;;;6.35;;
71368;SDS011;59175;53.214;5.728;2022-11-15T03:31:45;16.95;;;5.63;;
71368;SDS011;59175;53.214;5.728;2022-11-15T03:34:14;13.53;;;4.03;;
71368;SDS011;59175;53.214;5.728;2022-11-15T03:36:42;16.67;;;5.95;;
71368;SDS011;59175;53.214;5.728;2022-11-15T03:39:08;14.82;;;6.10;;
71368;SDS011;59175;53.214;5.728;2022-11-15T03:44:31;13.80;;;5.45;;
71368;SDS011;59175;53.214;5.728;2022-11-15T03:47:03;24.00;;;8.70;;
71368;SDS011;59175;53.214;5.728;2022-11-15T03:49:32;30.50;;;7.17;;
71368;SDS011;59175;53.214;5.728;2022-11-15T03:51:58;11.50;;;5.80;;
71368;SDS011;59175;53.214;5.728;2022-11-15T03:54:24;19.07;;;5.87;;
71368;SDS011;59175;53.214;5.728;2022-11-15T03:56:49;17.97;;;6.43;;
71368;SDS011;59175;53.214;5.728;2022-11-15T03:59:14;17.37;;;5.97;;
71368;SDS011;59175;53.214;5.728;2022-11-15T04:01:39;18.17;;;5.80;;
71368;SDS011;59175;53.214;5.728;2022-11-15T04:04:05;13.43;;;5.37;;
71368;SDS011;59175;53.214;5.728;2022-11-15T04:06:30;21.17;;;6.73;;
71368;SDS011;59175;53.214;5.728;2022-11-15T04:08:55;16.53;;;5.17;;
71368;SDS011;59175;53.214;5.728;2022-11-15T04:11:20;18.27;;;4.33;;
71368;SDS011;59175;53.214;5.728;2022-11-15T04:13:45;20.30;;;5.93;;
71368;SDS011;59175;53.214;5.728;2022-11-15T04:16:10;17.87;;;5.10;;
71368;SDS011;59175;53.214;5.728;2022-11-15T04:18:36;36.00;;;8.25;;
71368;SDS011;59175;53.214;5.728;2022-11-15T04:21:01;17.50;;;5.80;;
71368;SDS011;59175;53.214;5.728;2022-11-15T04:23:45;16.73;;;6.90;;
71368;SDS011;59175;53.214;5.728;2022-11-15T04:26:29;13.38;;;4.57;;
71368;SDS011;59175;53.214;5.728;2022-11-15T04:28:54;16.73;;;6.33;;
71368;SDS011;59175;53.214;5.728;2022-11-15T04:31:38;17.00;;;6.63;;
71368;SDS011;59175;53.214;5.728;2022-11-15T04:34:03;13.87;;;5.83;;
71368;SDS011;59175;53.214;5.728;2022-11-15T04:36:28;18.73;;;8.37;;
71368;SDS011;59175;53.214;5.728;2022-11-15T04:39:12;14.27;;;4.35;;
71368;SDS011;59175;53.214;5.728;2022-11-15T04:41:37;20.23;;;5.00;;
71368;SDS011;59175;53.214;5.728;2022-11-15T04:44:03;16.13;;;5.20;;
71368;SDS011;59175;53.214;5.728;2022-11-15T04:46:28;20.97;;;7.30;;
71368;SDS011;59175;53.214;5.728;2022-11-15T04:48:53;16.23;;;4.87;;
71368;SDS011;59175;53.214;5.728;2022-11-15T04:51:19;24.33;;;5.83;;
71368;SDS011;59175;53.214;5.728;2022-11-15T04:53:44;12.60;;;5.20;;
71368;SDS011;59175;53.214;5.728;2022-11-15T04:56:10;20.27;;;5.70;;
71368;SDS011;59175;53.214;5.728;2022-11-15T04:58:35;15.38;;;6.03;;
71368;SDS011;59175;53.214;5.728;2022-11-15T05:01:11;14.43;;;5.10;;
71368;SDS011;59175;53.214;5.728;2022-11-15T05:03:37;19.30;;;7.40;;
71368;SDS011;59175;53.214;5.728;2022-11-15T05:06:20;18.20;;;6.03;;
71368;SDS011;59175;53.214;5.728;2022-11-15T05:08:46;18.87;;;6.47;;
71368;SDS011;59175;53.214;5.728;2022-11-15T05:11:11;21.23;;;6.17;;
71368;SDS011;59175;53.214;5.728;2022-11-15T05:13:36;20.43;;;6.27;;
71368;SDS011;59175;53.214;5.728;2022-11-15T05:16:01;11.40;;;4.47;;
71368;SDS011;59175;53.214;5.728;2022-11-15T05:18:26;16.63;;;5.50;;
71368;SDS011;59175;53.214;5.728;2022-11-15T05:20:52;16.87;;;6.03;;
71368;SDS011;59175;53.214;5.728;2022-11-15T05:23:17;16.27;;;6.33;;
71368;SDS011;59175;53.214;5.728;2022-11-15T05:25:42;18.17;;;5.40;;
71368;SDS011;59175;53.214;5.728;2022-11-15T05:28:07;25.77;;;8.33;;
71368;SDS011;59175;53.214;5.728;2022-11-15T05:30:32;19.43;;;6.37;;
71368;SDS011;59175;53.214;5.728;2022-11-15T05:32:58;19.10;;;5.63;;
71368;SDS011;59175;53.214;5.728;2022-11-15T05:35:38;14.87;;;5.50;;
71368;SDS011;59175;53.214;5.728;2022-11-15T05:38:03;20.52;;;6.93;;
71368;SDS011;59175;53.214;5.728;2022-11-15T05:40:29;24.93;;;6.23;;
71368;SDS011;59175;53.214;5.728;2022-11-15T05:42:55;17.85;;;5.65;;
71368;SDS011;59175;53.214;5.728;2022-11-15T05:45:20;14.03;;;5.33;;
71368;SDS011;59175;53.214;5.728;2022-11-15T05:47:45;17.33;;;4.53;;
71368;SDS011;59175;53.214;5.728;2022-11-15T05:50:12;11.77;;;5.25;;
71368;SDS011;59175;53.214;5.728;2022-11-15T05:52:39;16.85;;;5.25;;
71368;SDS011;59175;53.214;5.728;2022-11-15T05:55:04;19.30;;;6.60;;
71368;SDS011;59175;53.214;5.728;2022-11-15T05:57:31;17.00;;;7.38;;
71368;SDS011;59175;53.214;5.728;2022-11-15T05:59:56;19.97;;;5.43;;
71368;SDS011;59175;53.214;5.728;2022-11-15T06:02:22;18.63;;;6.57;;
71368;SDS011;59175;53.214;5.728;2022-11-15T06:04:47;16.60;;;6.73;;
71368;SDS011;59175;53.214;5.728;2022-11-15T06:07:12;23.33;;;7.80;;
71368;SDS011;59175;53.214;5.728;2022-11-15T06:09:38;17.93;;;6.47;;
71368;SDS011;59175;53.214;5.728;2022-11-15T06:12:03;20.73;;;7.07;;
71368;SDS011;59175;53.214;5.728;2022-11-15T06:14:28;13.30;;;4.07;;
71368;SDS011;59175;53.214;5.728;2022-11-15T06:16:54;18.50;;;6.82;;
71368;SDS011;59175;53.214;5.728;2022-11-15T06:19:20;14.43;;;5.80;;
71368;SDS011;59175;53.214;5.728;2022-11-15T06:21:45;17.03;;;5.47;;
71368;SDS011;59175;53.214;5.728;2022-11-15T06:24:10;16.53;;;6.60;;
71368;SDS011;59175;53.214;5.728;2022-11-15T06:26:35;18.17;;;6.57;;
71368;SDS011;59175;53.214;5.728;2022-11-15T06:29:02;17.33;;;5.93;;
71368;SDS011;59175;53.214;5.728;2022-11-15T06:31:27;20.83;;;7.07;;
71368;SDS011;59175;53.214;5.728;2022-11-15T06:33:52;14.20;;;4.87;;
71368;SDS011;59175;53.214;5.728;2022-11-15T06:36:17;15.93;;;5.53;;
71368;SDS011;59175;53.214;5.728;2022-11-15T06:38:43;16.20;;;6.27;;
71368;SDS011;59175;53.214;5.728;2022-11-15T06:41:09;13.73;;;5.27;;
71368;SDS011;59175;53.214;5.728;2022-11-15T06:43:35;17.80;;;6.40;;
71368;SDS011;59175;53.214;5.728;2022-11-15T06:46:01;12.93;;;4.77;;
71368;SDS011;59175;53.214;5.728;2022-11-15T06:48:26;15.88;;;5.32;;
71368;SDS011;59175;53.214;5.728;2022-11-15T06:50:56;17.83;;;7.30;;
71368;SDS011;59175;53.214;5.728;2022-11-15T06:53:21;21.70;;;7.43;;
71368;SDS011;59175;53.214;5.728;2022-11-15T06:55:47;17.45;;;6.25;;
71368;SDS011;59175;53.214;5.728;2022-11-15T06:58:12;25.43;;;7.60;;
71368;SDS011;59175;53.214;5.728;2022-11-15T07:00:37;16.00;;;6.10;;
71368;SDS011;59175;53.214;5.728;2022-11-15T07:03:03;17.70;;;6.93;;
71368;SDS011;59175;53.214;5.728;2022-11-15T07:05:28;15.20;;;5.37;;
71368;SDS011;59175;53.214;5.728;2022-11-15T07:07:54;19.17;;;7.10;;
71368;SDS011;59175;53.214;5.728;2022-11-15T07:10:20;18.92;;;7.10;;
71368;SDS011;59175;53.214;5.728;2022-11-15T07:12:47;21.25;;;7.93;;
71368;SDS011;59175;53.214;5.728;2022-11-15T07:15:12;18.27;;;7.07;;
71368;SDS011;59175;53.214;5.728;2022-11-15T07:17:37;15.43;;;5.60;;
71368;SDS011;59175;53.214;5.728;2022-11-15T07:20:03;15.97;;;7.40;;
71368;SDS011;59175;53.214;5.728;2022-11-15T07:22:28;21.90;;;8.23;;
71368;SDS011;59175;53.214;5.728;2022-11-15T07:24:53;29.13;;;8.10;;
71368;SDS011;59175;53.214;5.728;2022-11-15T07:27:19;17.27;;;7.43;;
71368;SDS011;59175;53.214;5.728;2022-11-15T07:29:44;16.90;;;8.00;;
71368;SDS011;59175;53.214;5.728;2022-11-15T07:32:09;32.67;;;8.77;;
71368;SDS011;59175;53.214;5.728;2022-11-15T07:34:34;16.33;;;6.17;;
71368;SDS011;59175;53.214;5.728;2022-11-15T07:36:59;24.03;;;7.80;;
71368;SDS011;59175;53.214;5.728;2022-11-15T07:39:25;16.67;;;7.17;;
71368;SDS011;59175;53.214;5.728;2022-11-15T07:41:50;22.33;;;8.10;;
71368;SDS011;59175;53.214;5.728;2022-11-15T07:44:35;16.30;;;7.55;;
71368;SDS011;59175;53.214;5.728;2022-11-15T07:47:00;14.47;;;7.17;;
71368;SDS011;59175;53.214;5.728;2022-11-15T07:49:25;35.60;;;15.47;;
71368;SDS011;59175;53.214;5.728;2022-11-15T07:51:51;121.10;;;58.27;;
71368;SDS011;59175;53.214;5.728;2022-11-15T07:54:16;31.43;;;17.50;;
71368;SDS011;59175;53.214;5.728;2022-11-15T07:56:42;24.52;;;10.70;;
71368;SDS011;59175;53.214;5.728;2022-11-15T07:59:07;26.50;;;11.70;;
71368;SDS011;59175;53.214;5.728;2022-11-15T08:01:32;21.30;;;10.77;;
71368;SDS011;59175;53.214;5.728;2022-11-15T08:03:58;19.93;;;9.27;;
71368;SDS011;59175;53.214;5.728;2022-11-15T08:06:23;15.60;;;7.63;;
71368;SDS011;59175;53.214;5.728;2022-11-15T08:08:48;18.77;;;7.77;;
71368;SDS011;59175;53.214;5.728;2022-11-15T08:11:13;17.70;;;8.60;;
71368;SDS011;59175;53.214;5.728;2022-11-15T08:13:39;21.23;;;6.07;;
71368;SDS011;59175;53.214;5.728;2022-11-15T08:16:04;25.27;;;7.87;;
71368;SDS011;59175;53.214;5.728;2022-11-15T08:18:30;18.37;;;7.77;;
71368;SDS011;59175;53.214;5.728;2022-11-15T08:20:58;21.58;;;6.72;;
71368;SDS011;59175;53.214;5.728;2022-11-15T08:23:24;23.27;;;7.47;;
71368;SDS011;59175;53.214;5.728;2022-11-15T08:25:49;14.80;;;7.03;;
71368;SDS011;59175;53.214;5.728;2022-11-15T08:28:15;18.47;;;7.27;;
71368;SDS011;59175;53.214;5.728;2022-11-15T08:30:41;16.60;;;7.45;;
71368;SDS011;59175;53.214;5.728;2022-11-15T08:33:09;17.13;;;7.40;;
71368;SDS011;59175;53.214;5.728;2022-11-15T08:35:35;16.30;;;7.30;;
71368;SDS011;59175;53.214;5.728;2022-11-15T08:38:00;14.13;;;6.80;;
71368;SDS011;59175;53.214;5.728;2022-11-15T08:40:25;24.03;;;8.70;;
71368;SDS011;59175;53.214;5.728;2022-11-15T08:42:51;16.65;;;7.80;;
71368;SDS011;59175;53.214;5.728;2022-11-15T08:45:17;17.00;;;6.27;;
71368;SDS011;59175;53.214;5.728;2022-11-15T08:47:42;18.97;;;8.17;;
71368;SDS011;59175;53.214;5.728;2022-11-15T08:50:07;16.43;;;8.07;;
71368;SDS011;59175;53.214;5.728;2022-11-15T08:52:33;17.97;;;6.23;;
71368;SDS011;59175;53.214;5.728;2022-11-15T08:54:58;22.43;;;7.20;;
71368;SDS011;59175;53.214;5.728;2022-11-15T08:57:23;15.53;;;7.30;;
71368;SDS011;59175;53.214;5.728;2022-11-15T08:59:48;14.97;;;6.57;;
71368;SDS011;59175;53.214;5.728;2022-11-15T09:02:14;19.07;;;7.70;;
71368;SDS011;59175;53.214;5.728;2022-11-15T09:04:43;17.30;;;8.00;;
71368;SDS011;59175;53.214;5.728;2022-11-15T09:07:11;14.32;;;5.95;;
71368;SDS011;59175;53.214;5.728;2022-11-15T09:09:38;18.40;;;5.57;;
71368;SDS011;59175;53.214;5.728;2022-11-15T09:12:04;13.27;;;6.10;;
71368;SDS011;59175;53.214;5.728;2022-11-15T09:14:29;20.13;;;6.55;;
71368;SDS011;59175;53.214;5.728;2022-11-15T09:16:54;19.33;;;7.90;;
71368;SDS011;59175;53.214;5.728;2022-11-15T09:19:20;13.77;;;7.07;;
71368;SDS011;59175;53.214;5.728;2022-11-15T09:21:45;18.93;;;7.43;;
71368;SDS011;59175;53.214;5.728;2022-11-15T09:24:10;15.80;;;6.27;;
71368;SDS011;59175;53.214;5.728;2022-11-15T09:26:36;19.90;;;7.80;;
71368;SDS011;59175;53.214;5.728;2022-11-15T09:29:01;13.15;;;6.85;;
71368;SDS011;59175;53.214;5.728;2022-11-15T09:31:27;20.98;;;7.97;;
71368;SDS011;59175;53.214;5.728;2022-11-15T09:33:52;22.00;;;9.33;;
71368;SDS011;59175;53.214;5.728;2022-11-15T09:36:17;17.20;;;6.77;;
71368;SDS011;59175;53.214;5.728;2022-11-15T09:38:43;21.13;;;8.60;;
71368;SDS011;59175;53.214;5.728;2022-11-15T09:51:21;22.23;;;8.93;;
71368;SDS011;59175;53.214;5.728;2022-11-15T09:56:18;16.00;;;7.00;;
71368;SDS011;59175;53.214;5.728;2022-11-15T09:58:49;15.40;;;7.03;;
71368;SDS011;59175;53.214;5.728;2022-11-15T10:01:20;14.68;;;6.50;;
71368;SDS011;59175;53.214;5.728;2022-11-15T10:03:47;15.93;;;6.50;;
71368;SDS011;59175;53.214;5.728;2022-11-15T10:06:18;15.80;;;6.90;;
71368;SDS011;59175;53.214;5.728;2022-11-15T10:08:50;23.05;;;7.65;;
71368;SDS011;59175;53.214;5.728;2022-11-15T10:11:20;14.27;;;7.10;;
71368;SDS011;59175;53.214;5.728;2022-11-15T10:13:46;16.40;;;7.40;;
71368;SDS011;59175;53.214;5.728;2022-11-15T10:24:18;21.00;;;7.97;;
71368;SDS011;59175;53.214;5.728;2022-11-15T10:26:47;17.58;;;7.53;;
71368;SDS011;59175;53.214;5.728;2022-11-15T10:29:17;17.33;;;7.18;;
71368;SDS011;59175;53.214;5.728;2022-11-15T10:31:42;17.77;;;7.40;;
71368;SDS011;59175;53.214;5.728;2022-11-15T10:34:18;16.27;;;5.77;;
71368;SDS011;59175;53.214;5.728;2022-11-15T10:36:44;15.13;;;6.90;;
71368;SDS011;59175;53.214;5.728;2022-11-15T10:39:11;13.70;;;6.13;;
71368;SDS011;59175;53.214;5.728;2022-11-15T10:41:37;19.02;;;6.45;;
71368;SDS011;59175;53.214;5.728;2022-11-15T10:46:31;12.20;;;6.45;;
71368;SDS011;59175;53.214;5.728;2022-11-15T10:49:12;14.17;;;6.53;;
71368;SDS011;59175;53.214;5.728;2022-11-15T10:51:48;18.03;;;6.77;;
71368;SDS011;59175;53.214;5.728;2022-11-15T10:54:16;13.55;;;5.00;;
71368;SDS011;59175;53.214;5.728;2022-11-15T10:56:48;15.05;;;6.18;;
71368;SDS011;59175;53.214;5.728;2022-11-15T10:59:18;19.02;;;5.18;;
71368;SDS011;59175;53.214;5.728;2022-11-15T11:01:45;15.55;;;5.20;;
71368;SDS011;59175;53.214;5.728;2022-11-15T11:04:10;19.93;;;6.33;;
71368;SDS011;59175;53.214;5.728;2022-11-15T11:09:34;17.25;;;7.13;;
71368;SDS011;59175;53.214;5.728;2022-11-15T11:12:00;10.27;;;4.10;;
71368;SDS011;59175;53.214;5.728;2022-11-15T11:14:27;14.52;;;5.65;;
71368;SDS011;59175;53.214;5.728;2022-11-15T11:32:34;16.95;;;4.38;;
71368;SDS011;59175;53.214;5.728;2022-11-15T11:37:49;14.60;;;4.65;;
71368;SDS011;59175;53.214;5.728;2022-11-15T11:40:32;9.18;;;3.50;;
71368;SDS011;59175;53.214;5.728;2022-11-15T11:43:22;12.93;;;3.50;;
71368;SDS011;59175;53.214;5.728;2022-11-15T11:45:57;9.98;;;3.80;;
71368;SDS011;59175;53.214;5.728;2022-11-15T11:50:52;11.27;;;3.80;;
71368;SDS011;59175;53.214;5.728;2022-11-15T11:53:31;10.60;;;3.80;;
71368;SDS011;59175;53.214;5.728;2022-11-15T11:55:58;11.47;;;4.27;;
71368;SDS011;59175;53.214;5.728;2022-11-15T11:58:29;9.13;;;3.50;;
71368;SDS011;59175;53.214;5.728;2022-11-15T12:01:10;13.55;;;4.30;;
71368;SDS011;59175;53.214;5.728;2022-11-15T12:08:40;6.17;;;2.40;;
71368;SDS011;59175;53.214;5.728;2022-11-15T12:13:34;12.10;;;3.13;;
71368;SDS011;59175;53.214;5.728;2022-11-15T12:16:21;8.80;;;3.72;;
71368;SDS011;59175;53.214;5.728;2022-11-15T12:18:49;8.23;;;2.85;;
71368;SDS011;59175;53.214;5.728;2022-11-15T12:21:21;9.07;;;3.97;;
71368;SDS011;59175;53.214;5.728;2022-11-15T12:23:50;11.65;;;2.60;;
71368;SDS011;59175;53.214;5.728;2022-11-15T12:26:18;9.98;;;3.58;;
71368;SDS011;59175;53.214;5.728;2022-11-15T12:28:46;8.80;;;2.53;;
71368;SDS011;59175;53.214;5.728;2022-11-15T12:33:57;10.43;;;3.43;;
71368;SDS011;59175;53.214;5.728;2022-11-15T12:38:53;7.47;;;3.10;;
71368;SDS011;59175;53.214;5.728;2022-11-15T12:41:22;10.23;;;2.85;;
71368;SDS011;59175;53.214;5.728;2022-11-15T12:43:47;10.10;;;3.28;;
71368;SDS011;59175;53.214;5.728;2022-11-15T12:48:47;6.03;;;1.73;;
71368;SDS011;59175;53.214;5.728;2022-11-15T12:51:12;6.10;;;2.00;;
71368;SDS011;59175;53.214;5.728;2022-11-15T12:53:37;5.20;;;1.73;;
71368;SDS011;59175;53.214;5.728;2022-11-15T12:58:39;5.87;;;2.23;;
71368;SDS011;59175;53.214;5.728;2022-11-15T13:01:08;4.03;;;1.48;;
71368;SDS011;59175;53.214;5.728;2022-11-15T13:03:34;6.27;;;1.13;;
71368;SDS011;59175;53.214;5.728;2022-11-15T13:06:00;5.45;;;1.38;;
71368;SDS011;59175;53.214;5.728;2022-11-15T13:14:25;3.05;;;0.63;;
71368;SDS011;59175;53.214;5.728;2022-11-15T13:16:49;3.20;;;0.63;;
71368;SDS011;59175;53.214;5.728;2022-11-15T13:19:21;3.80;;;0.88;;
71368;SDS011;59175;53.214;5.728;2022-11-15T13:21:48;6.13;;;1.27;;
71368;SDS011;59175;53.214;5.728;2022-11-15T13:24:32;6.40;;;1.20;;
71368;SDS011;59175;53.214;5.728;2022-11-15T13:26:58;4.27;;;1.20;;
71368;SDS011;59175;53.214;5.728;2022-11-15T13:29:23;3.90;;;1.03;;
71368;SDS011;59175;53.214;5.728;2022-11-15T13:31:48;5.47;;;0.80;;
71368;SDS011;59175;53.214;5.728;2022-11-15T13:34:16;2.55;;;0.60;;
71368;SDS011;59175;53.214;5.728;2022-11-15T13:36:41;4.90;;;0.80;;
71368;SDS011;59175;53.214;5.728;2022-11-15T13:39:25;3.93;;;1.10;;
71368;SDS011;59175;53.214;5.728;2022-11-15T13:41:50;3.05;;;0.70;;
71368;SDS011;59175;53.214;5.728;2022-11-15T13:44:27;5.65;;;1.10;;
71368;SDS011;59175;53.214;5.728;2022-11-15T13:47:14;3.47;;;0.85;;
71368;SDS011;59175;53.214;5.728;2022-11-15T13:49:39;3.57;;;0.90;;
71368;SDS011;59175;53.214;5.728;2022-11-15T13:52:05;5.37;;;1.43;;
71368;SDS011;59175;53.214;5.728;2022-11-15T13:54:42;2.58;;;0.75;;
71368;SDS011;59175;53.214;5.728;2022-11-15T13:57:10;5.22;;;1.00;;
71368;SDS011;59175;53.214;5.728;2022-11-15T13:59:44;3.50;;;0.90;;
71368;SDS011;59175;53.214;5.728;2022-11-15T14:02:16;4.35;;;1.05;;
71368;SDS011;59175;53.214;5.728;2022-11-15T14:04:47;5.07;;;1.57;;
71368;SDS011;59175;53.214;5.728;2022-11-15T14:07:17;2.92;;;0.85;;
71368;SDS011;59175;53.214;5.728;2022-11-15T14:09:43;6.85;;;1.50;;
71368;SDS011;59175;53.214;5.728;2022-11-15T14:12:32;3.65;;;0.73;;
71368;SDS011;59175;53.214;5.728;2022-11-15T14:14:59;3.63;;;1.08;;
71368;SDS011;59175;53.214;5.728;2022-11-15T14:19:56;6.43;;;1.52;;
71368;SDS011;59175;53.214;5.728;2022-11-15T14:22:22;5.63;;;1.38;;
71368;SDS011;59175;53.214;5.728;2022-11-15T14:27:34;4.37;;;1.33;;
71368;SDS011;59175;53.214;5.728;2022-11-15T14:29:59;3.03;;;0.82;;
71368;SDS011;59175;53.214;5.728;2022-11-15T14:32:26;3.77;;;1.20;;
71368;SDS011;59175;53.214;5.728;2022-11-15T14:34:58;4.47;;;0.97;;
71368;SDS011;59175;53.214;5.728;2022-11-15T14:37:25;5.05;;;1.45;;
71368;SDS011;59175;53.214;5.728;2022-11-15T14:39:51;3.70;;;1.00;;
71368;SDS011;59175;53.214;5.728;2022-11-15T14:42:16;2.80;;;1.13;;
71368;SDS011;59175;53.214;5.728;2022-11-15T14:44:42;4.80;;;0.90;;
71368;SDS011;59175;53.214;5.728;2022-11-15T14:47:07;4.33;;;1.00;;
71368;SDS011;59175;53.214;5.728;2022-11-15T14:49:32;6.30;;;1.23;;
71368;SDS011;59175;53.214;5.728;2022-11-15T14:51:58;4.50;;;0.50;;
71368;SDS011;59175;53.214;5.728;2022-11-15T14:54:23;8.40;;;1.13;;
71368;SDS011;59175;53.214;5.728;2022-11-15T14:56:48;2.53;;;0.63;;
71368;SDS011;59175;53.214;5.728;2022-11-15T14:59:13;2.30;;;0.57;;
71368;SDS011;59175;53.214;5.728;2022-11-15T15:01:39;3.30;;;0.90;;
71368;SDS011;59175;53.214;5.728;2022-11-15T15:04:04;4.30;;;1.70;;
71368;SDS011;59175;53.214;5.728;2022-11-15T15:06:29;3.00;;;0.90;;
71368;SDS011;59175;53.214;5.728;2022-11-15T15:08:55;4.00;;;1.00;;
71368;SDS011;59175;53.214;5.728;2022-11-15T15:11:21;3.83;;;0.80;;
71368;SDS011;59175;53.214;5.728;2022-11-15T15:13:47;4.07;;;0.77;;
71368;SDS011;59175;53.214;5.728;2022-11-15T15:16:12;8.00;;;0.90;;
71368;SDS011;59175;53.214;5.728;2022-11-15T15:18:38;3.83;;;0.70;;
71368;SDS011;59175;53.214;5.728;2022-11-15T15:21:04;4.00;;;0.97;;
71368;SDS011;59175;53.214;5.728;2022-11-15T15:23:36;2.97;;;0.65;;
71368;SDS011;59175;53.214;5.728;2022-11-15T15:26:02;3.00;;;0.70;;
71368;SDS011;59175;53.214;5.728;2022-11-15T15:28:27;2.80;;;0.80;;
71368;SDS011;59175;53.214;5.728;2022-11-15T15:30:52;2.80;;;0.93;;
71368;SDS011;59175;53.214;5.728;2022-11-15T15:33:17;3.90;;;1.07;;
71368;SDS011;59175;53.214;5.728;2022-11-15T15:35:43;4.63;;;0.80;;
71368;SDS011;59175;53.214;5.728;2022-11-15T15:38:10;3.70;;;0.83;;
71368;SDS011;59175;53.214;5.728;2022-11-15T15:40:35;2.55;;;0.50;;
71368;SDS011;59175;53.214;5.728;2022-11-15T15:43:01;2.53;;;0.63;;
71368;SDS011;59175;53.214;5.728;2022-11-15T15:45:26;4.00;;;0.57;;
71368;SDS011;59175;53.214;5.728;2022-11-15T15:47:52;3.27;;;0.70;;
71368;SDS011;59175;53.214;5.728;2022-11-15T15:50:22;3.08;;;0.47;;
71368;SDS011;59175;53.214;5.728;2022-11-15T15:52:48;1.92;;;0.43;;
71368;SDS011;59175;53.214;5.728;2022-11-15T15:55:14;3.57;;;0.60;;
71368;SDS011;59175;53.214;5.728;2022-11-15T15:57:39;4.50;;;0.80;;
71368;SDS011;59175;53.214;5.728;2022-11-15T16:00:04;4.37;;;1.07;;
71368;SDS011;59175;53.214;5.728;2022-11-15T16:02:30;3.13;;;0.55;;
71368;SDS011;59175;53.214;5.728;2022-11-15T16:04:55;3.50;;;1.00;;
71368;SDS011;59175;53.214;5.728;2022-11-15T16:07:21;7.53;;;0.50;;
71368;SDS011;59175;53.214;5.728;2022-11-15T16:09:46;2.17;;;0.40;;
71368;SDS011;59175;53.214;5.728;2022-11-15T16:12:28;2.65;;;0.50;;
71368;SDS011;59175;53.214;5.728;2022-11-15T16:14:53;2.97;;;0.52;;
71368;SDS011;59175;53.214;5.728;2022-11-15T16:17:20;2.27;;;0.60;;
71368;SDS011;59175;53.214;5.728;2022-11-15T16:19:45;1.90;;;0.50;;
71368;SDS011;59175;53.214;5.728;2022-11-15T16:22:11;1.50;;;0.30;;
71368;SDS011;59175;53.214;5.728;2022-11-15T16:24:36;4.80;;;0.60;;
71368;SDS011;59175;53.214;5.728;2022-11-15T16:27:01;3.57;;;0.60;;
71368;SDS011;59175;53.214;5.728;2022-11-15T16:29:26;1.83;;;0.20;;
71368;SDS011;59175;53.214;5.728;2022-11-15T16:31:52;2.20;;;0.57;;